createdAt,value
2017-10-17T00:01:13.817Z,16.80
2017-10-17T00:03:52.372Z,17.00
2017-10-17T00:06:20.664Z,16.90
2017-10-17T00:08:48.931Z,16.90
2017-10-17T00:11:17.187Z,16.90
2017-10-17T00:13:45.487Z,16.70
2017-10-17T00:16:13.764Z,16.70
2017-10-17T00:18:42.092Z,16.80
2017-10-17T00:21:22.347Z,16.70
2017-10-17T00:23:50.639Z,16.70
2017-10-17T00:26:18.896Z,16.70
2017-10-17T00:28:47.162Z,16.80
2017-10-17T00:31:14.693Z,16.70
2017-10-17T00:33:42.979Z,16.80
2017-10-17T00:36:15.023Z,16.80
2017-10-17T00:39:00.092Z,16.70
2017-10-17T00:41:28.351Z,16.70
2017-10-17T00:43:56.659Z,16.70
2017-10-17T00:46:24.919Z,16.70
2017-10-17T00:48:57.179Z,16.70
2017-10-17T00:51:24.691Z,16.70
2017-10-17T00:54:13.995Z,16.70
2017-10-17T00:56:42.303Z,16.70
2017-10-17T00:59:27.369Z,16.60
2017-10-17T01:01:54.896Z,16.60
2017-10-17T01:04:23.192Z,16.60
2017-10-17T01:06:51.457Z,16.50
2017-10-17T01:09:25.763Z,16.70
2017-10-17T01:11:54.064Z,16.60
2017-10-17T01:14:22.328Z,16.50
2017-10-17T01:16:50.591Z,16.50
2017-10-17T01:19:18.880Z,16.40
2017-10-17T01:21:47.147Z,16.40
2017-10-17T01:24:15.447Z,16.50
2017-10-17T01:26:43.708Z,16.50
2017-10-17T01:29:14.708Z,16.50
2017-10-17T01:31:43.007Z,16.40
2017-10-17T01:34:11.257Z,16.40
2017-10-17T01:36:41.245Z,16.30
2017-10-17T01:39:09.532Z,16.30
2017-10-17T01:41:39.067Z,16.30
2017-10-17T01:44:11.006Z,16.20
2017-10-17T01:46:40.770Z,16.20
2017-10-17T01:49:11.962Z,16.30
2017-10-17T01:51:46.826Z,16.30
2017-10-17T01:54:16.899Z,16.20
2017-10-17T01:56:45.159Z,16.10
2017-10-17T01:59:17.841Z,16.10
2017-10-17T02:01:47.110Z,16.30
2017-10-17T02:04:15.381Z,16.20
2017-10-17T02:06:43.671Z,16.10
2017-10-17T02:09:11.939Z,16.00
2017-10-17T02:11:40.218Z,16.10
2017-10-17T02:14:09.387Z,16.00
2017-10-17T02:16:39.027Z,15.90
2017-10-17T02:19:14.782Z,15.90
2017-10-17T02:22:05.644Z,15.90
2017-10-17T02:24:38.833Z,16.10
2017-10-17T02:27:07.611Z,16.00
2017-10-17T02:29:38.944Z,16.00
2017-10-17T02:32:30.496Z,16.00
2017-10-17T02:35:00.420Z,15.90
2017-10-17T02:37:28.687Z,15.90
2017-10-17T02:39:56.939Z,15.90
2017-10-17T02:42:25.224Z,15.90
2017-10-17T02:44:53.478Z,16.00
2017-10-17T02:47:21.760Z,15.90
2017-10-17T02:49:50.711Z,15.90
2017-10-17T02:52:34.836Z,15.90
2017-10-17T02:55:04.089Z,15.90
2017-10-17T02:57:37.623Z,15.90
2017-10-17T03:00:05.890Z,15.90
2017-10-17T03:02:42.491Z,15.90
2017-10-17T03:05:12.298Z,15.80
2017-10-17T03:07:56.854Z,15.80
2017-10-17T03:10:25.113Z,15.80
2017-10-17T03:12:53.366Z,15.70
2017-10-17T03:15:24.355Z,15.70
2017-10-17T03:17:52.658Z,15.70
2017-10-17T03:20:22.886Z,15.70
2017-10-17T03:22:51.176Z,15.70
2017-10-17T03:25:19.429Z,15.70
2017-10-17T03:27:48.658Z,15.70
2017-10-17T03:30:16.928Z,15.80
2017-10-17T03:32:44.419Z,15.70
2017-10-17T03:35:15.101Z,15.70
2017-10-17T03:37:51.290Z,15.70
2017-10-17T03:40:43.176Z,15.70
2017-10-17T03:43:43.379Z,15.60
2017-10-17T03:46:11.670Z,15.50
2017-10-17T03:48:40.799Z,15.50
2017-10-17T03:51:09.902Z,15.50
2017-10-17T03:53:47.898Z,15.50
2017-10-17T03:56:42.826Z,15.50
2017-10-17T03:59:17.895Z,15.50
2017-10-17T04:01:46.343Z,15.50
2017-10-17T04:04:35.387Z,15.40
2017-10-17T04:10:19.269Z,15.40
2017-10-17T04:12:51.240Z,15.40
2017-10-17T04:15:19.530Z,15.30
2017-10-17T04:17:51.246Z,15.30
2017-10-17T04:20:27.362Z,15.30
2017-10-17T04:23:02.288Z,15.30
2017-10-17T04:35:18.614Z,14.90
2017-10-17T04:37:47.570Z,14.90
2017-10-17T04:40:28.540Z,14.90
2017-10-17T04:43:19.586Z,14.90
2017-10-17T04:45:54.468Z,15.00
2017-10-17T04:48:48.262Z,15.00
2017-10-17T04:51:29.403Z,14.90
2017-10-17T04:54:30.247Z,15.00
2017-10-17T04:57:01.120Z,15.00
2017-10-17T04:59:41.083Z,15.00
2017-10-17T05:02:15.743Z,15.10
2017-10-17T05:06:53.011Z,15.10
2017-10-17T05:09:27.882Z,15.10
2017-10-17T05:11:56.195Z,15.10
2017-10-17T05:14:43.954Z,15.20
2017-10-17T05:17:33.762Z,15.20
2017-10-17T05:20:09.322Z,15.20
2017-10-17T05:22:44.166Z,15.20
2017-10-17T05:25:16.022Z,15.20
2017-10-17T05:28:04.250Z,15.20
2017-10-17T05:30:42.163Z,15.20
2017-10-17T05:33:19.280Z,15.30
2017-10-17T05:35:47.536Z,15.30
2017-10-17T05:38:20.982Z,15.30
2017-10-17T05:40:49.243Z,15.30
2017-10-17T05:43:29.535Z,15.40
2017-10-17T05:45:57.795Z,15.40
2017-10-17T05:48:28.948Z,15.40
2017-10-17T05:51:05.147Z,15.40
2017-10-17T05:53:34.699Z,15.40
2017-10-17T05:56:04.610Z,15.50
2017-10-17T05:58:32.904Z,15.40
2017-10-17T06:01:06.847Z,15.40
2017-10-17T06:03:35.146Z,15.40
2017-10-17T06:06:11.811Z,15.40
2017-10-17T06:08:40.487Z,15.50
2017-10-17T06:11:09.186Z,15.50
2017-10-17T06:13:38.511Z,15.50
2017-10-17T06:16:06.811Z,15.50
2017-10-17T06:18:35.064Z,15.50
2017-10-17T06:21:05.276Z,15.40
2017-10-17T06:23:34.296Z,15.50
2017-10-17T06:26:08.578Z,15.50
2017-10-17T06:28:39.891Z,15.50
2017-10-17T06:31:08.619Z,15.50
2017-10-17T06:33:36.875Z,15.60
2017-10-17T06:36:05.287Z,15.60
2017-10-17T06:38:34.307Z,15.60
2017-10-17T06:41:01.796Z,15.60
2017-10-17T06:43:31.984Z,15.70
2017-10-17T06:46:00.282Z,15.70
2017-10-17T06:48:35.139Z,15.70
2017-10-17T06:51:04.106Z,15.70
2017-10-17T06:53:51.489Z,15.70
2017-10-17T06:56:19.784Z,15.70
2017-10-17T07:01:40.867Z,15.70
2017-10-17T07:04:09.631Z,15.80
2017-10-17T07:06:38.505Z,15.80
2017-10-17T07:09:13.733Z,15.90
2017-10-17T07:11:41.978Z,15.90
2017-10-17T07:14:26.664Z,15.90
2017-10-17T07:16:54.919Z,15.90
2017-10-17T07:19:31.091Z,15.90
2017-10-17T07:21:59.346Z,15.90
2017-10-17T07:24:27.599Z,16.00
2017-10-17T07:26:55.967Z,16.00
2017-10-17T07:29:23.446Z,16.00
2017-10-17T07:31:51.715Z,16.10
2017-10-17T07:34:20.014Z,16.10
2017-10-17T07:36:48.296Z,16.10
2017-10-17T07:39:16.591Z,16.20
2017-10-17T07:41:44.843Z,16.20
2017-10-17T07:44:13.095Z,16.20
2017-10-17T07:46:41.395Z,16.30
2017-10-17T07:49:09.656Z,16.30
2017-10-17T07:51:39.122Z,16.30
2017-10-17T07:54:07.809Z,16.30
2017-10-17T07:56:36.071Z,16.30
2017-10-17T07:59:05.379Z,16.40
2017-10-17T08:01:34.546Z,16.40
2017-10-17T08:04:02.818Z,16.40
2017-10-17T08:06:31.079Z,16.50
2017-10-17T08:08:59.371Z,16.60
2017-10-17T08:11:27.631Z,16.60
2017-10-17T08:13:55.936Z,16.60
2017-10-17T08:16:27.199Z,16.70
2017-10-17T08:18:55.484Z,16.70
2017-10-17T08:21:23.747Z,16.70
2017-10-17T08:23:52.030Z,16.70
2017-10-17T08:26:20.287Z,16.70
2017-10-17T08:28:48.589Z,16.70
2017-10-17T08:31:24.021Z,16.80
2017-10-17T08:33:52.307Z,16.80
2017-10-17T08:36:21.490Z,16.80
2017-10-17T08:38:49.792Z,16.90
2017-10-17T08:41:18.052Z,16.90
2017-10-17T08:43:46.314Z,16.90
2017-10-17T08:46:20.428Z,16.90
2017-10-17T08:48:48.711Z,17.00
2017-10-17T08:51:16.966Z,17.00
2017-10-17T08:53:45.262Z,17.00
2017-10-17T08:56:13.522Z,16.90
2017-10-17T08:58:41.782Z,16.90
2017-10-17T09:01:10.076Z,16.90
2017-10-17T09:03:38.343Z,16.90
2017-10-17T09:06:06.651Z,16.90
2017-10-17T09:08:34.902Z,16.90
2017-10-17T09:11:04.219Z,17.00
2017-10-17T09:13:32.502Z,17.10
2017-10-17T09:16:03.324Z,17.10
2017-10-17T09:18:31.615Z,17.10
2017-10-17T09:20:59.902Z,17.20
2017-10-17T09:23:28.201Z,17.30
2017-10-17T09:25:56.472Z,17.40
2017-10-17T09:28:24.763Z,17.40
2017-10-17T09:31:00.296Z,17.40
2017-10-17T09:33:28.570Z,17.40
2017-10-17T09:35:56.876Z,17.40
2017-10-17T09:38:25.145Z,17.40
2017-10-17T09:40:53.398Z,17.40
2017-10-17T09:43:28.026Z,17.40
2017-10-17T09:45:56.295Z,17.50
2017-10-17T09:48:35.958Z,17.50
2017-10-17T09:51:05.391Z,17.50
2017-10-17T09:53:54.359Z,17.50
2017-10-17T09:56:22.651Z,17.60
2017-10-17T09:58:50.939Z,17.80
2017-10-17T10:01:19.194Z,17.60
2017-10-17T10:03:50.500Z,17.70
2017-10-17T10:06:18.767Z,17.80
2017-10-17T10:08:49.060Z,17.80
2017-10-17T10:11:17.311Z,18.00
2017-10-17T10:13:46.608Z,18.00
2017-10-17T10:16:32.336Z,18.00
2017-10-17T10:19:00.614Z,18.20
2017-10-17T10:21:53.774Z,18.10
2017-10-17T10:24:22.063Z,18.00
2017-10-17T10:27:00.695Z,18.00
2017-10-17T10:29:28.984Z,18.00
2017-10-17T10:31:59.163Z,18.00
2017-10-17T10:34:27.447Z,18.00
2017-10-17T10:37:01.567Z,18.00
2017-10-17T10:39:29.872Z,18.00
2017-10-17T10:41:58.139Z,17.90
2017-10-17T10:44:26.407Z,18.10
2017-10-17T10:46:54.703Z,18.20
2017-10-17T10:49:22.984Z,18.20
2017-10-17T10:51:51.290Z,18.20
2017-10-17T10:54:22.804Z,18.20
2017-10-17T10:56:50.339Z,18.20
2017-10-17T10:59:35.406Z,18.20
2017-10-17T11:02:03.699Z,18.20
2017-10-17T11:04:31.955Z,18.20
2017-10-17T11:07:00.234Z,18.20
2017-10-17T11:09:28.484Z,18.10
2017-10-17T11:11:56.767Z,18.20
2017-10-17T11:14:35.097Z,18.20
2017-10-17T11:17:04.310Z,18.20
2017-10-17T11:19:54.422Z,18.20
2017-10-17T11:22:22.677Z,18.30
2017-10-17T11:24:51.000Z,18.40
2017-10-17T11:27:19.254Z,18.30
2017-10-17T11:29:50.583Z,18.30
2017-10-17T11:32:18.850Z,18.20
2017-10-17T11:34:50.655Z,18.30
2017-10-17T11:37:18.955Z,18.30
2017-10-17T11:39:50.731Z,18.20
2017-10-17T11:42:37.949Z,18.30
2017-10-17T11:45:06.208Z,18.20
2017-10-17T11:47:35.771Z,18.30
2017-10-17T11:50:05.456Z,18.20
2017-10-17T11:52:33.711Z,18.30
2017-10-17T11:55:01.998Z,18.30
2017-10-17T11:57:34.490Z,18.40
2017-10-17T12:00:03.085Z,18.40
2017-10-17T12:02:31.370Z,18.70
2017-10-17T12:04:59.622Z,18.70
2017-10-17T12:07:27.906Z,18.80
2017-10-17T12:09:56.199Z,18.70
2017-10-17T12:12:24.460Z,18.70
2017-10-17T12:14:52.719Z,18.80
2017-10-17T12:17:24.143Z,18.70
2017-10-17T12:19:52.404Z,18.80
2017-10-17T12:22:20.658Z,18.70
2017-10-17T12:24:48.939Z,18.80
2017-10-17T12:27:17.230Z,18.80
2017-10-17T12:29:45.491Z,18.90
2017-10-17T12:32:13.747Z,18.90
2017-10-17T12:34:51.927Z,18.80
2017-10-17T12:37:20.186Z,18.80
2017-10-17T12:39:48.439Z,18.90
2017-10-17T12:42:16.723Z,18.90
2017-10-17T12:45:06.487Z,18.80
2017-10-17T12:47:35.454Z,18.80
2017-10-17T12:50:08.595Z,18.80
2017-10-17T12:52:36.855Z,18.70
2017-10-17T12:55:09.435Z,18.70
2017-10-17T12:57:36.928Z,18.70
2017-10-17T13:00:11.303Z,18.90
2017-10-17T13:02:40.139Z,18.80
2017-10-17T13:05:08.391Z,18.80
2017-10-17T13:07:36.679Z,18.70
2017-10-17T13:10:24.838Z,18.70
2017-10-17T13:12:53.118Z,18.70
2017-10-17T13:15:21.369Z,18.70
2017-10-17T13:17:49.628Z,18.70
2017-10-17T13:20:34.560Z,18.70
2017-10-17T13:23:02.854Z,18.80
2017-10-17T13:25:31.106Z,18.80
2017-10-17T13:27:59.410Z,18.90
2017-10-17T13:30:28.628Z,18.70
2017-10-17T13:32:56.879Z,18.60
2017-10-17T13:35:25.168Z,18.50
2017-10-17T13:37:53.418Z,18.60
2017-10-17T13:40:21.674Z,18.70
2017-10-17T13:42:52.943Z,18.80
2017-10-17T13:45:21.195Z,18.80
2017-10-17T13:47:49.503Z,18.90
2017-10-17T13:50:17.755Z,18.80
2017-10-17T13:52:55.955Z,18.80
2017-10-17T13:55:24.243Z,18.80
2017-10-17T13:57:54.402Z,18.80
2017-10-17T14:00:22.683Z,18.80
2017-10-17T14:02:50.942Z,18.80
2017-10-17T14:05:19.247Z,18.80
2017-10-17T14:07:47.499Z,18.80
2017-10-17T14:10:15.766Z,18.90
2017-10-17T14:12:44.051Z,18.90
2017-10-17T14:15:12.299Z,18.90
2017-10-17T14:17:40.582Z,18.90
2017-10-17T14:20:08.830Z,18.90
2017-10-17T14:22:37.078Z,18.80
2017-10-17T14:25:05.368Z,18.80
2017-10-17T14:27:34.474Z,18.80
2017-10-17T14:30:03.457Z,18.80
2017-10-17T14:32:31.712Z,18.80
2017-10-17T14:34:59.964Z,18.80
2017-10-17T14:37:28.255Z,18.80
2017-10-17T14:39:56.505Z,18.80
2017-10-17T14:42:24.762Z,18.70
2017-10-17T14:44:53.060Z,18.80
2017-10-17T14:47:21.314Z,18.80
2017-10-17T14:49:49.565Z,18.90
2017-10-17T14:52:17.855Z,18.70
2017-10-17T14:54:46.097Z,18.70
2017-10-17T14:57:14.351Z,18.70
2017-10-17T14:59:42.632Z,18.70
2017-10-17T15:02:10.915Z,18.70
2017-10-17T15:04:40.355Z,18.70
2017-10-17T15:07:09.286Z,18.60
2017-10-17T15:09:37.575Z,18.50
2017-10-17T15:12:05.859Z,18.40
2017-10-17T15:14:35.479Z,18.30
2017-10-17T15:17:05.671Z,18.30
2017-10-17T15:19:35.033Z,18.20
2017-10-17T15:22:04.139Z,18.20
2017-10-17T15:24:32.399Z,18.30
2017-10-17T15:27:03.833Z,18.20
2017-10-17T15:29:32.080Z,18.10
2017-10-17T15:32:00.345Z,18.10
2017-10-17T15:34:28.627Z,18.10
2017-10-17T15:36:59.824Z,18.10
2017-10-17T15:39:28.114Z,18.10
2017-10-17T15:41:56.358Z,18.10
2017-10-17T15:44:24.620Z,18.10
2017-10-17T15:46:52.907Z,18.00
2017-10-17T15:49:21.167Z,18.00
2017-10-17T15:51:49.444Z,17.90
2017-10-17T15:54:17.699Z,17.90
2017-10-17T15:56:45.978Z,17.90
2017-10-17T15:59:14.283Z,17.80
2017-10-17T16:01:42.536Z,17.80
2017-10-17T16:04:10.799Z,17.80
2017-10-17T16:06:40.282Z,17.80
2017-10-17T16:09:08.907Z,17.80
2017-10-17T16:11:37.162Z,17.70
2017-10-17T16:14:06.286Z,17.60
2017-10-17T16:16:35.833Z,17.50
2017-10-17T16:19:05.199Z,17.50
2017-10-17T16:21:34.421Z,17.50
2017-10-17T16:24:03.350Z,17.40
2017-10-17T16:26:35.462Z,17.30
2017-10-17T16:29:03.712Z,17.30
2017-10-17T16:31:35.414Z,17.30
2017-10-17T16:34:04.484Z,17.20
2017-10-17T16:36:33.573Z,17.20
2017-10-17T16:39:01.858Z,17.20
2017-10-17T16:41:30.166Z,17.10
2017-10-17T16:43:58.418Z,17.10
2017-10-17T16:46:27.716Z,17.00
2017-10-17T16:48:56.002Z,17.00
2017-10-17T16:51:24.276Z,16.90
2017-10-17T16:53:52.575Z,16.90
2017-10-17T16:56:20.834Z,16.90
2017-10-17T16:58:49.094Z,16.90
2017-10-17T17:01:17.383Z,16.80
2017-10-17T17:03:45.630Z,16.80
2017-10-17T17:06:13.910Z,16.80
2017-10-17T17:08:42.158Z,16.70
2017-10-17T17:11:10.458Z,16.70
2017-10-17T17:13:39.414Z,16.60
2017-10-17T17:16:08.699Z,16.60
2017-10-17T17:18:36.994Z,16.60
2017-10-17T17:21:05.372Z,16.60
2017-10-17T17:23:34.251Z,16.60
2017-10-17T17:26:02.543Z,16.60
2017-10-17T17:28:30.880Z,16.50
2017-10-17T17:30:59.158Z,16.40
2017-10-17T17:33:27.464Z,16.50
2017-10-17T17:35:55.721Z,16.40
2017-10-17T17:38:23.223Z,16.40
2017-10-17T17:40:50.745Z,16.40
2017-10-17T17:43:19.030Z,16.30
2017-10-17T17:45:47.279Z,16.20
2017-10-17T17:48:15.558Z,16.30
2017-10-17T17:50:43.047Z,16.30
2017-10-17T17:53:11.339Z,16.10
2017-10-17T17:55:39.902Z,16.10
2017-10-17T17:58:08.906Z,16.20
2017-10-17T18:00:37.988Z,16.10
2017-10-17T18:03:06.248Z,16.10
2017-10-17T18:05:35.199Z,16.00
2017-10-17T18:08:04.292Z,16.00
2017-10-17T18:10:32.549Z,16.00
2017-10-17T18:13:00.996Z,15.90
2017-10-17T18:15:29.245Z,15.80
2017-10-17T18:17:57.553Z,15.80
2017-10-17T18:20:25.846Z,15.70
2017-10-17T18:22:54.102Z,15.80
2017-10-17T18:25:22.387Z,15.70
2017-10-17T18:27:50.670Z,15.80
2017-10-17T18:30:18.208Z,15.80
2017-10-17T18:32:46.458Z,15.80
2017-10-17T18:35:14.706Z,15.70
2017-10-17T18:37:42.972Z,15.70
2017-10-17T18:40:11.231Z,15.70
2017-10-17T18:42:39.946Z,15.70
2017-10-17T18:45:08.779Z,15.70
2017-10-17T18:47:37.034Z,15.60
2017-10-17T18:50:05.319Z,15.60
2017-10-17T18:52:34.577Z,15.60
2017-10-17T18:55:02.859Z,15.60
2017-10-17T18:57:31.179Z,15.50
2017-10-17T18:59:59.469Z,15.50
2017-10-17T19:02:27.746Z,15.50
2017-10-17T19:04:56.015Z,15.50
2017-10-17T19:07:40.603Z,15.40
2017-10-17T19:10:09.297Z,15.40
2017-10-17T19:12:38.047Z,15.40
2017-10-17T19:15:06.318Z,15.40
2017-10-17T19:17:33.856Z,15.40
2017-10-17T19:20:02.120Z,15.30
2017-10-17T19:22:30.379Z,15.30
2017-10-17T19:24:58.667Z,15.30
2017-10-17T19:27:27.942Z,15.30
2017-10-17T19:29:56.209Z,15.20
2017-10-17T19:32:24.503Z,15.20
2017-10-17T19:35:04.922Z,15.20
2017-10-17T19:37:34.338Z,15.20
2017-10-17T19:40:03.436Z,15.20
2017-10-17T19:42:31.695Z,15.20
2017-10-17T19:44:59.979Z,15.10
2017-10-17T19:47:28.235Z,15.00
2017-10-17T19:49:56.515Z,15.00
2017-10-17T19:52:24.789Z,15.00
2017-10-17T19:54:55.003Z,15.00
2017-10-17T19:57:24.278Z,15.00
2017-10-17T19:59:52.571Z,15.00
2017-10-17T20:02:20.831Z,14.90
2017-10-17T20:04:49.118Z,15.00
2017-10-17T20:07:17.371Z,15.10
2017-10-17T20:09:45.655Z,15.00
2017-10-17T20:12:13.938Z,15.00
2017-10-17T20:14:57.455Z,15.00
2017-10-17T20:17:25.751Z,14.90
2017-10-17T20:19:57.256Z,14.90
2017-10-17T20:22:25.551Z,14.90
2017-10-17T20:24:57.576Z,14.90
2017-10-17T20:27:25.874Z,14.90
2017-10-17T20:30:00.157Z,14.80
2017-10-17T20:32:28.451Z,14.80
2017-10-17T20:34:57.686Z,14.70
2017-10-17T20:37:25.943Z,14.80
2017-10-17T20:40:08.978Z,14.80
2017-10-17T20:42:37.235Z,14.80
2017-10-17T20:45:10.834Z,14.80
2017-10-17T20:47:39.587Z,14.80
2017-10-17T20:50:18.511Z,14.90
2017-10-17T20:52:46.767Z,14.90
2017-10-17T20:55:16.008Z,14.90
2017-10-17T20:57:44.289Z,14.90
2017-10-17T21:00:12.541Z,14.90
2017-10-17T21:02:55.040Z,14.90
2017-10-17T21:05:23.330Z,14.90
2017-10-17T21:07:59.306Z,15.00
2017-10-17T21:10:27.558Z,15.00
2017-10-17T21:12:55.818Z,15.00
2017-10-17T21:15:24.106Z,15.00
2017-10-17T21:17:53.286Z,15.00
2017-10-17T21:20:21.571Z,15.00
2017-10-17T21:22:50.758Z,14.90
2017-10-17T21:25:19.051Z,14.90
2017-10-17T21:27:46.551Z,14.90
2017-10-17T21:30:14.816Z,14.90
2017-10-17T21:32:43.094Z,14.90
2017-10-17T21:35:11.358Z,15.00
2017-10-17T21:37:42.919Z,15.00
2017-10-17T21:40:10.419Z,15.00
2017-10-17T21:42:39.301Z,15.00
2017-10-17T21:45:07.996Z,15.00
2017-10-17T21:47:37.226Z,15.00
2017-10-17T21:50:05.487Z,15.10
2017-10-17T21:52:38.658Z,15.10
2017-10-17T21:55:06.971Z,14.90
2017-10-17T21:57:48.632Z,14.80
2017-10-17T22:00:16.925Z,14.80
2017-10-17T22:02:45.193Z,14.80
2017-10-17T22:05:14.397Z,14.80
2017-10-17T22:07:42.708Z,14.70
2017-10-17T22:10:10.993Z,14.70
2017-10-17T22:12:40.510Z,14.60
2017-10-17T22:15:09.537Z,14.70
2017-10-17T22:17:37.071Z,14.70
2017-10-17T22:20:05.324Z,14.70
2017-10-17T22:22:34.517Z,14.60
2017-10-17T22:25:03.606Z,14.60
2017-10-17T22:27:31.895Z,14.50
2017-10-17T22:30:00.144Z,14.50
2017-10-17T22:32:28.404Z,14.50
2017-10-17T22:34:56.694Z,14.50
2017-10-17T22:37:24.984Z,14.50
2017-10-17T22:39:53.231Z,14.40
2017-10-17T22:42:21.491Z,14.40
2017-10-17T22:44:49.788Z,14.40
2017-10-17T22:47:18.034Z,14.40
2017-10-17T22:49:46.299Z,14.40
2017-10-17T22:52:14.583Z,14.40
2017-10-17T22:54:42.834Z,14.30
2017-10-17T22:57:14.980Z,14.30
2017-10-17T22:59:43.243Z,14.30
2017-10-17T23:02:11.543Z,14.20
2017-10-17T23:04:39.790Z,14.20
2017-10-17T23:07:08.823Z,14.20
2017-10-17T23:09:37.087Z,14.10
2017-10-17T23:12:05.382Z,14.10
2017-10-17T23:14:34.731Z,14.10
2017-10-17T23:17:16.747Z,14.10
2017-10-17T23:19:56.879Z,14.10
2017-10-17T23:22:35.940Z,14.10
2017-10-17T23:25:05.482Z,14.10
2017-10-17T23:27:33.756Z,14.10
2017-10-17T23:30:02.043Z,14.00
2017-10-17T23:32:29.570Z,14.00
2017-10-17T23:34:57.818Z,14.00
2017-10-17T23:37:26.078Z,13.90
2017-10-17T23:39:54.358Z,13.90
2017-10-17T23:42:22.610Z,13.90
2017-10-17T23:44:50.902Z,13.90
2017-10-17T23:47:18.415Z,13.80
2017-10-17T23:49:46.719Z,13.80
2017-10-17T23:52:14.967Z,13.80
2017-10-17T23:54:43.222Z,13.80
2017-10-17T23:57:11.507Z,13.80
2017-10-17T23:59:39.787Z,13.80
